createdAt,value
2019-04-06T00:02:03.634Z,91.50
2019-04-06T00:04:32.989Z,91.40
2019-04-06T00:07:00.762Z,91.60
2019-04-06T00:09:28.553Z,91.80
2019-04-06T00:14:34.125Z,91.90
2019-04-06T00:17:01.829Z,92.00
2019-04-06T00:19:29.804Z,91.90
2019-04-06T00:21:57.579Z,91.80
2019-04-06T00:24:25.361Z,91.80
2019-04-06T00:26:53.121Z,91.70
2019-04-06T00:29:20.803Z,91.70
2019-04-06T00:31:55.078Z,91.80
2019-04-06T00:34:24.423Z,91.70
2019-04-06T00:36:52.181Z,91.60
2019-04-06T00:39:19.916Z,91.60
2019-04-06T00:41:47.672Z,91.70
2019-04-06T00:44:16.832Z,92.00
2019-04-06T00:46:44.829Z,92.00
2019-04-06T00:49:15.271Z,92.20
2019-04-06T00:51:45.951Z,92.00
2019-04-06T00:54:13.708Z,91.90
2019-04-06T00:56:41.450Z,91.80
2019-04-06T00:59:09.141Z,92.20
2019-04-06T01:01:36.915Z,92.30
2019-04-06T01:04:04.706Z,92.30
2019-04-06T01:06:32.457Z,92.20
2019-04-06T01:09:00.149Z,92.30
2019-04-06T01:11:28.013Z,92.20
2019-04-06T01:13:55.686Z,92.10
2019-04-06T01:16:23.410Z,92.10
2019-04-06T01:18:51.146Z,92.10
2019-04-06T01:21:18.887Z,92.00
2019-04-06T01:23:46.685Z,92.50
2019-04-06T01:26:14.434Z,92.20
2019-04-06T01:28:42.101Z,92.10
2019-04-06T01:31:09.933Z,92.10
2019-04-06T01:33:37.661Z,92.10
2019-04-06T01:36:05.346Z,91.90
2019-04-06T01:38:33.107Z,91.90
2019-04-06T01:41:00.785Z,91.90
2019-04-06T01:43:28.535Z,92.20
2019-04-06T01:45:56.198Z,92.10
2019-04-06T01:48:23.929Z,92.10
2019-04-06T01:50:51.629Z,92.10
2019-04-06T01:53:19.394Z,92.00
2019-04-06T01:55:47.077Z,92.10
2019-04-06T01:58:14.829Z,92.00
2019-04-06T02:00:55.841Z,92.10
2019-04-06T02:03:25.203Z,92.10
2019-04-06T02:05:52.890Z,92.00
2019-04-06T02:08:21.117Z,92.10
2019-04-06T02:10:48.865Z,92.60
2019-04-06T02:13:16.619Z,92.40
2019-04-06T02:15:44.294Z,92.30
2019-04-06T02:18:12.057Z,92.40
2019-04-06T02:20:39.810Z,92.40
2019-04-06T02:23:07.594Z,92.40
2019-04-06T02:25:35.280Z,92.40
2019-04-06T02:28:03.054Z,92.40
2019-04-06T02:30:37.648Z,92.50
2019-04-06T02:33:26.625Z,92.50
2019-04-06T02:36:18.049Z,92.40
2019-04-06T02:38:58.162Z,92.30
2019-04-06T02:42:02.137Z,92.40
2019-04-06T02:44:31.571Z,92.40
2019-04-06T02:46:59.239Z,92.30
2019-04-06T02:49:27.013Z,92.40
2019-04-06T02:51:54.590Z,92.40
2019-04-06T02:54:22.363Z,92.40
2019-04-06T02:56:50.077Z,92.40
2019-04-06T02:59:17.900Z,92.30
2019-04-06T03:01:45.881Z,92.30
2019-04-06T03:04:13.529Z,92.30
2019-04-06T03:06:41.258Z,92.30
2019-04-06T03:09:11.488Z,92.30
2019-04-06T03:11:38.631Z,92.30
2019-04-06T03:14:06.380Z,92.50
2019-04-06T03:16:34.140Z,92.60
2019-04-06T03:19:01.893Z,92.60
2019-04-06T03:21:29.727Z,92.80
2019-04-06T03:23:57.412Z,92.80
2019-04-06T03:26:25.332Z,92.70
2019-04-06T03:28:53.093Z,92.70
2019-04-06T03:31:25.230Z,92.60
2019-04-06T03:33:50.493Z,92.70
2019-04-06T03:36:18.434Z,92.80
2019-04-06T03:38:46.147Z,92.60
2019-04-06T03:41:13.882Z,92.50
2019-04-06T03:43:41.561Z,92.40
2019-04-06T03:46:09.316Z,92.40
2019-04-06T03:48:37.010Z,92.50
2019-04-06T03:51:04.670Z,92.50
2019-04-06T03:53:32.533Z,92.40
2019-04-06T03:56:00.270Z,92.30
2019-04-06T03:58:28.059Z,92.30
2019-04-06T04:00:55.724Z,92.40
2019-04-06T04:03:23.599Z,92.40
2019-04-06T04:05:51.675Z,92.40
2019-04-06T04:08:19.844Z,92.50
2019-04-06T04:10:48.058Z,92.40
2019-04-06T04:13:15.972Z,92.30
2019-04-06T04:15:43.646Z,92.30
2019-04-06T04:18:11.576Z,92.40
2019-04-06T04:20:39.325Z,92.50
2019-04-06T04:23:07.078Z,92.70
2019-04-06T04:25:34.847Z,92.50
2019-04-06T04:28:02.589Z,92.70
2019-04-06T04:30:33.174Z,92.70
2019-04-06T04:32:59.916Z,92.60
2019-04-06T04:35:28.187Z,92.40
2019-04-06T04:37:56.324Z,92.20
2019-04-06T04:40:24.176Z,92.20
2019-04-06T04:42:52.043Z,92.20
2019-04-06T04:45:19.730Z,92.00
2019-04-06T04:47:50.010Z,92.30
2019-04-06T04:50:17.119Z,92.20
2019-04-06T04:52:44.822Z,92.00
2019-04-06T04:55:12.673Z,92.10
2019-04-06T04:57:41.684Z,92.10
2019-04-06T05:00:10.092Z,92.20
2019-04-06T05:02:38.277Z,92.10
2019-04-06T05:05:06.259Z,92.10
2019-04-06T05:07:34.317Z,92.30
2019-04-06T05:10:02.128Z,92.50
2019-04-06T05:12:31.416Z,92.30
2019-04-06T05:15:04.566Z,92.30
2019-04-06T05:17:33.872Z,92.70
2019-04-06T05:20:01.760Z,92.90
2019-04-06T05:22:31.064Z,92.70
2019-04-06T05:24:58.824Z,92.70
2019-04-06T05:27:26.925Z,92.90
2019-04-06T05:29:54.724Z,93.10
2019-04-06T05:32:22.404Z,93.20
2019-04-06T05:34:50.238Z,93.50
2019-04-06T05:37:18.213Z,93.70
2019-04-06T05:39:45.906Z,93.70
2019-04-06T05:42:13.679Z,93.80
2019-04-06T05:44:41.422Z,94.00
2019-04-06T05:47:09.250Z,94.30
2019-04-06T05:49:36.951Z,94.20
2019-04-06T05:52:04.701Z,94.10
2019-04-06T05:54:32.669Z,94.00
2019-04-06T05:57:00.796Z,94.10
2019-04-06T05:59:28.469Z,94.30
2019-04-06T06:01:56.321Z,94.50
2019-04-06T06:04:24.086Z,94.80
2019-04-06T06:06:51.849Z,94.90
2019-04-06T06:09:19.928Z,94.90
2019-04-06T06:11:47.845Z,95.50
2019-04-06T06:14:15.677Z,95.50
2019-04-06T06:16:43.443Z,95.70
2019-04-06T06:19:11.161Z,95.50
2019-04-06T06:21:38.991Z,95.60
2019-04-06T06:24:06.693Z,96.10
2019-04-06T06:26:34.361Z,96.00
2019-04-06T06:29:02.184Z,96.00
2019-04-06T06:31:30.101Z,96.30
2019-04-06T06:33:57.994Z,96.50
2019-04-06T06:36:25.689Z,96.50
2019-04-06T06:38:53.505Z,96.50
2019-04-06T06:41:21.238Z,96.60
2019-04-06T06:43:48.981Z,96.90
2019-04-06T06:46:16.675Z,96.50
2019-04-06T06:48:44.461Z,96.60
2019-04-06T06:51:12.135Z,96.90
2019-04-06T06:53:40.009Z,97.10
2019-04-06T06:56:07.734Z,97.00
2019-04-06T06:58:35.913Z,97.20
2019-04-06T07:01:04.105Z,97.00
2019-04-06T07:03:32.060Z,97.10
2019-04-06T07:05:59.726Z,96.90
2019-04-06T07:08:27.497Z,96.80
2019-04-06T07:10:55.173Z,96.80
2019-04-06T07:13:22.946Z,96.90
2019-04-06T07:15:50.670Z,97.10
2019-04-06T07:18:18.504Z,97.30
2019-04-06T07:20:46.370Z,97.50
2019-04-06T07:23:14.147Z,97.60
2019-04-06T07:25:41.874Z,97.70
2019-04-06T07:28:09.666Z,98.20
2019-04-06T07:30:37.391Z,98.20
2019-04-06T07:33:05.085Z,98.60
2019-04-06T07:35:32.870Z,98.70
2019-04-06T07:38:00.553Z,98.80
2019-04-06T07:40:28.305Z,98.80
2019-04-06T07:42:56.261Z,98.00
2019-04-06T07:45:24.103Z,98.20
2019-04-06T07:47:51.841Z,98.20
2019-04-06T07:50:20.010Z,98.50
2019-04-06T07:52:47.826Z,97.80
2019-04-06T07:55:15.727Z,97.60
2019-04-06T07:57:43.598Z,97.10
2019-04-06T08:00:11.614Z,97.20
2019-04-06T08:02:39.653Z,97.10
2019-04-06T08:05:08.008Z,97.10
2019-04-06T08:07:35.835Z,97.00
2019-04-06T08:10:04.541Z,96.80
2019-04-06T08:12:33.473Z,96.80
2019-04-06T08:15:01.293Z,97.20
2019-04-06T08:17:30.690Z,96.90
2019-04-06T08:19:58.674Z,96.60
2019-04-06T08:22:28.477Z,96.80
2019-04-06T08:24:58.110Z,96.70
2019-04-06T08:27:26.032Z,96.00
2019-04-06T08:29:56.760Z,96.20
2019-04-06T08:32:24.573Z,96.40
2019-04-06T08:34:52.448Z,96.00
2019-04-06T08:37:20.234Z,95.60
2019-04-06T08:39:47.982Z,95.90
2019-04-06T08:42:15.772Z,95.10
2019-04-06T08:44:43.495Z,94.80
2019-04-06T08:47:15.089Z,94.50
2019-04-06T08:49:43.022Z,95.30
2019-04-06T08:52:11.709Z,95.10
2019-04-06T08:54:39.717Z,95.30
2019-04-06T08:57:07.529Z,94.70
2019-04-06T08:59:37.604Z,94.00
2019-04-06T09:02:05.413Z,93.60
2019-04-06T09:04:33.189Z,93.30
2019-04-06T09:07:01.604Z,93.00
2019-04-06T09:09:29.662Z,93.70
2019-04-06T09:12:00.386Z,93.70
2019-04-06T09:14:28.255Z,93.60
2019-04-06T09:16:56.250Z,94.00
2019-04-06T09:19:24.108Z,93.80
2019-04-06T09:22:09.908Z,92.90
2019-04-06T09:24:32.253Z,92.40
2019-04-06T09:27:07.790Z,92.00
2019-04-06T09:29:35.799Z,92.20
2019-04-06T09:32:03.694Z,91.90
2019-04-06T09:34:31.605Z,91.30
2019-04-06T09:36:59.296Z,91.70
2019-04-06T09:39:27.242Z,91.60
2019-04-06T09:41:55.007Z,91.70
2019-04-06T09:44:44.669Z,91.70
2019-04-06T09:47:45.516Z,91.70
2019-04-06T09:50:35.096Z,91.20
2019-04-06T09:53:22.729Z,91.30
2019-04-06T09:56:04.930Z,91.20
2019-04-06T09:58:54.080Z,91.10
2019-04-06T10:01:42.915Z,91.10
2019-04-06T10:04:23.369Z,90.80
2019-04-06T10:07:04.795Z,90.10
2019-04-06T10:09:53.720Z,90.80
2019-04-06T10:12:35.448Z,90.50
2019-04-06T10:15:27.539Z,90.50
2019-04-06T10:18:16.221Z,90.70
2019-04-06T10:21:05.220Z,89.20
2019-04-06T10:23:52.698Z,90.60
2019-04-06T10:26:53.906Z,88.00
2019-04-06T10:29:48.969Z,90.10
2019-04-06T10:32:24.202Z,90.30
2019-04-06T10:35:13.071Z,89.50
2019-04-06T10:38:05.334Z,88.20
2019-04-06T10:40:50.359Z,90.00
2019-04-06T10:43:48.402Z,90.10
2019-04-06T10:46:40.316Z,88.70
2019-04-06T10:49:22.044Z,87.80
2019-04-06T10:52:12.731Z,88.00
2019-04-06T10:55:17.287Z,85.50
2019-04-06T10:57:58.293Z,85.60
2019-04-06T11:00:51.851Z,86.40
2019-04-06T11:03:55.927Z,85.80
2019-04-06T11:06:54.559Z,85.80
2019-04-06T11:09:46.161Z,87.60
2019-04-06T11:12:31.414Z,87.40
2019-04-06T11:15:32.592Z,86.90
2019-04-06T11:18:24.816Z,86.60
2019-04-06T11:21:12.526Z,87.60
2019-04-06T11:23:52.955Z,86.80
2019-04-06T11:26:57.163Z,86.60
2019-04-06T11:29:37.390Z,87.60
2019-04-06T11:32:19.189Z,86.60
2019-04-06T11:35:20.437Z,86.50
2019-04-06T11:38:07.900Z,86.90
2019-04-06T11:41:12.298Z,85.40
2019-04-06T11:44:01.489Z,83.70
2019-04-06T11:46:49.494Z,85.10
2019-04-06T11:49:35.515Z,85.60
2019-04-06T11:52:36.697Z,83.50
2019-04-06T11:55:24.987Z,83.20
2019-04-06T11:58:23.094Z,84.30
2019-04-06T12:01:17.274Z,81.30
2019-04-06T12:04:05.090Z,82.00
2019-04-06T12:07:03.275Z,83.00
2019-04-06T12:09:51.287Z,82.10
2019-04-06T12:12:48.318Z,83.30
2019-04-06T12:15:35.685Z,82.30
2019-04-06T12:18:33.940Z,83.00
2019-04-06T12:21:21.881Z,82.00
2019-04-06T12:24:23.094Z,81.50
2019-04-06T12:27:11.914Z,82.50
2019-04-06T12:30:06.913Z,82.10
2019-04-06T12:32:52.394Z,82.40
2019-04-06T12:35:38.622Z,81.50
2019-04-06T12:38:20.339Z,80.60
2019-04-06T12:41:03.392Z,82.30
2019-04-06T12:43:55.204Z,81.90
2019-04-06T12:46:44.240Z,81.90
2019-04-06T12:49:48.349Z,81.50
2019-04-06T12:52:23.748Z,81.40
2019-04-06T12:55:07.270Z,81.10
2019-04-06T12:57:54.124Z,80.10
2019-04-06T13:00:50.710Z,80.80
2019-04-06T13:03:35.667Z,80.30
2019-04-06T13:06:24.558Z,80.20
2019-04-06T13:09:22.766Z,79.60
2019-04-06T13:12:17.561Z,81.30
2019-04-06T13:15:12.254Z,81.80
2019-04-06T13:17:53.291Z,79.20
2019-04-06T13:20:42.264Z,79.40
2019-04-06T13:23:30.185Z,78.30
2019-04-06T13:26:34.496Z,80.50
2019-04-06T13:29:35.720Z,80.30
2019-04-06T13:32:17.106Z,79.00
2019-04-06T13:34:56.110Z,79.60
2019-04-06T13:37:35.944Z,79.50
2019-04-06T13:40:25.240Z,78.50
2019-04-06T13:43:01.887Z,74.70
2019-04-06T13:46:09.336Z,76.40
2019-04-06T13:48:57.212Z,78.00
2019-04-06T13:51:49.979Z,76.60
2019-04-06T13:54:38.912Z,76.80
2019-04-06T13:57:17.736Z,77.40
2019-04-06T13:59:54.644Z,76.80
2019-04-06T14:02:52.550Z,77.00
2019-04-06T14:05:37.102Z,75.60
2019-04-06T14:08:22.487Z,75.70
2019-04-06T14:11:01.301Z,77.20
2019-04-06T14:13:58.867Z,74.70
2019-04-06T14:16:46.623Z,75.40
2019-04-06T14:19:34.186Z,75.00
2019-04-06T14:22:29.226Z,74.60
2019-04-06T14:25:16.973Z,75.10
2019-04-06T14:28:12.075Z,75.50
2019-04-06T14:31:27.862Z,74.60
2019-04-06T14:34:12.632Z,73.60
2019-04-06T14:36:50.571Z,73.30
2019-04-06T14:39:30.820Z,72.10
2019-04-06T14:42:19.761Z,72.50
2019-04-06T14:45:21.125Z,71.50
2019-04-06T14:47:58.277Z,71.60
2019-04-06T14:50:46.303Z,71.40
2019-04-06T14:53:24.665Z,69.40
2019-04-06T14:56:02.985Z,68.40
2019-04-06T15:32:10.253Z,64.30
2019-04-06T15:34:59.054Z,64.90
2019-04-06T15:37:39.983Z,64.70
2019-04-06T15:40:27.697Z,64.60
2019-04-06T15:43:22.278Z,64.80
2019-04-06T15:46:00.963Z,64.40
2019-04-06T15:48:48.141Z,64.50
2019-04-06T15:51:39.628Z,64.80
2019-04-06T15:54:24.198Z,66.40
2019-04-06T15:57:16.781Z,64.80
2019-04-06T16:00:17.600Z,65.20
2019-04-06T16:02:57.834Z,65.60
2019-04-06T16:05:39.434Z,65.90
2019-04-06T16:08:21.926Z,65.50
2019-04-06T16:11:01.356Z,64.90
2019-04-06T16:13:42.411Z,66.20
2019-04-06T16:16:19.609Z,66.60
2019-04-06T16:19:04.884Z,67.80
2019-04-06T16:21:43.706Z,67.70
2019-04-06T16:24:26.529Z,66.70
2019-04-06T16:27:14.122Z,66.60
2019-04-06T16:29:48.739Z,66.80
2019-04-06T16:32:56.061Z,66.90
2019-04-06T16:35:45.260Z,67.00
2019-04-06T16:38:36.262Z,67.50
2019-04-06T16:41:14.165Z,67.90
2019-04-06T16:44:02.009Z,68.80
2019-04-06T16:46:49.895Z,69.20
2019-04-06T16:49:39.054Z,68.90
2019-04-06T16:52:29.947Z,67.80
2019-04-06T16:55:15.860Z,66.90
2019-04-06T16:58:03.430Z,67.40
2019-04-06T17:00:40.370Z,67.00
2019-04-06T17:03:29.201Z,67.30
2019-04-06T17:06:20.398Z,68.10
2019-04-06T17:09:12.188Z,67.40
2019-04-06T17:11:57.321Z,67.70
2019-04-06T17:14:44.875Z,68.00
2019-04-06T17:17:52.244Z,68.00
2019-04-06T17:20:37.179Z,68.10
2019-04-06T17:23:15.818Z,68.00
2019-04-06T17:26:03.345Z,67.70
2019-04-06T17:28:58.724Z,67.80
2019-04-06T17:31:44.178Z,67.70
2019-04-06T17:34:27.445Z,68.00
2019-04-06T17:37:22.569Z,68.20
2019-04-06T17:40:20.133Z,68.40
2019-04-06T17:43:15.242Z,68.50
2019-04-06T17:46:07.277Z,69.00
2019-04-06T17:48:47.590Z,68.90
2019-04-06T17:51:37.522Z,68.90
2019-04-06T17:54:36.238Z,69.20
2019-04-06T17:57:25.076Z,69.40
2019-04-06T18:00:14.284Z,69.40
2019-04-06T18:03:03.451Z,69.40
2019-04-06T18:05:55.555Z,69.70
2019-04-06T18:08:47.323Z,69.80
2019-04-06T18:11:25.885Z,69.90
2019-04-06T18:13:55.336Z,70.30
2019-04-06T18:16:26.266Z,70.80
2019-04-06T18:18:55.571Z,71.30
2019-04-06T18:21:23.618Z,71.30
2019-04-06T18:23:51.551Z,71.20
2019-04-06T18:26:19.511Z,71.30
2019-04-06T18:28:47.330Z,71.30
2019-04-06T18:31:38.211Z,71.60
2019-04-06T18:34:08.101Z,71.60
2019-04-06T18:36:53.897Z,72.00
2019-04-06T18:39:29.371Z,72.00
2019-04-06T18:42:00.214Z,72.80
2019-04-06T18:44:28.125Z,73.30
2019-04-06T18:46:56.612Z,73.60
2019-04-06T18:49:29.702Z,73.60
2019-04-06T18:51:57.577Z,73.70
2019-04-06T18:54:29.556Z,74.30
2019-04-06T18:56:58.074Z,74.30
2019-04-06T18:59:26.263Z,74.10
2019-04-06T19:01:54.127Z,74.50
2019-04-06T19:04:22.594Z,74.60
2019-04-06T19:06:50.605Z,74.40
2019-04-06T19:09:24.059Z,74.60
2019-04-06T19:11:56.716Z,74.90
2019-04-06T19:14:23.907Z,75.30
2019-04-06T19:16:51.786Z,75.50
2019-04-06T19:19:19.554Z,75.40
2019-04-06T19:21:47.334Z,75.40
2019-04-06T19:24:15.494Z,75.40
2019-04-06T19:26:49.161Z,75.90
2019-04-06T19:29:20.399Z,76.00
2019-04-06T19:31:55.400Z,76.20
2019-04-06T19:34:27.114Z,76.60
2019-04-06T19:36:55.474Z,77.00
2019-04-06T19:39:24.192Z,77.00
2019-04-06T19:41:52.499Z,77.40
2019-04-06T19:44:20.518Z,77.20
2019-04-06T19:46:48.313Z,77.00
2019-04-06T19:49:16.143Z,77.20
2019-04-06T19:51:46.847Z,77.30
2019-04-06T19:54:14.553Z,77.70
2019-04-06T19:56:42.799Z,77.80
2019-04-06T19:59:12.925Z,78.20
2019-04-06T20:01:41.215Z,78.40
2019-04-06T20:04:09.123Z,78.50
2019-04-06T20:06:37.399Z,79.20
2019-04-06T20:09:06.508Z,80.00
2019-04-06T20:11:34.857Z,80.20
2019-04-06T20:14:02.823Z,80.90
2019-04-06T20:16:30.799Z,81.30
2019-04-06T20:19:01.567Z,81.10
2019-04-06T20:21:29.631Z,81.60
2019-04-06T20:23:57.422Z,81.90
2019-04-06T20:26:25.743Z,82.30
2019-04-06T20:28:53.573Z,82.30
2019-04-06T20:31:21.422Z,82.40
2019-04-06T20:33:51.901Z,82.80
2019-04-06T20:36:19.410Z,83.00
2019-04-06T20:38:47.424Z,82.60
2019-04-06T20:41:15.325Z,83.50
2019-04-06T20:43:43.270Z,83.10
2019-04-06T20:46:11.099Z,82.70
2019-04-06T20:48:38.899Z,83.30
2019-04-06T20:51:07.207Z,83.20
2019-04-06T20:53:35.398Z,83.00
2019-04-06T20:56:03.450Z,82.70
2019-04-06T20:58:31.373Z,82.90
2019-04-06T21:00:59.175Z,83.00
2019-04-06T21:03:27.008Z,83.20
2019-04-06T21:05:55.349Z,83.20
2019-04-06T21:08:24.083Z,83.70
2019-04-06T21:10:52.151Z,84.10
2019-04-06T21:13:20.099Z,83.90
2019-04-06T21:15:47.996Z,83.70
2019-04-06T21:18:15.711Z,83.90
2019-04-06T21:20:44.032Z,83.60
2019-04-06T21:23:12.013Z,83.50
2019-04-06T21:25:43.008Z,83.50
2019-04-06T21:28:10.929Z,83.50
2019-04-06T21:30:39.046Z,83.70
2019-04-06T21:33:06.917Z,83.70
2019-04-06T21:35:34.818Z,84.40
2019-04-06T21:38:02.644Z,84.60
2019-04-06T21:43:26.753Z,84.80
2019-04-06T21:45:54.891Z,84.50
2019-04-06T21:48:22.822Z,84.30
2019-04-06T21:50:50.646Z,83.80
2019-04-06T21:53:18.608Z,84.50
2019-04-06T21:55:47.131Z,85.00
2019-04-06T21:58:15.206Z,85.50
2019-04-06T22:00:51.214Z,85.60
2019-04-06T22:03:20.737Z,85.30
2019-04-06T22:05:48.833Z,85.00
2019-04-06T22:08:17.513Z,85.90
2019-04-06T22:10:52.778Z,86.70
2019-04-06T22:13:22.333Z,86.80
2019-04-06T22:15:50.591Z,87.30
2019-04-06T22:18:19.246Z,86.00
2019-04-06T22:20:47.239Z,86.00
2019-04-06T22:23:15.042Z,85.80
2019-04-06T22:25:42.868Z,85.30
2019-04-06T22:28:10.934Z,85.00
2019-04-06T22:30:39.826Z,85.00
2019-04-06T22:33:08.250Z,85.30
2019-04-06T22:35:36.269Z,86.30
2019-04-06T22:38:04.548Z,86.30
2019-04-06T22:40:32.535Z,86.10
2019-04-06T22:43:01.271Z,85.60
2019-04-06T22:45:29.873Z,85.80
2019-04-06T22:47:59.078Z,87.10
2019-04-06T22:50:27.033Z,88.40
2019-04-06T22:52:54.937Z,88.00
2019-04-06T22:55:23.181Z,87.30
2019-04-06T22:57:51.058Z,87.80
2019-04-06T23:00:44.296Z,87.10
2019-04-06T23:03:33.074Z,88.50
2019-04-06T23:06:05.793Z,88.60
2019-04-06T23:08:35.216Z,88.40
2019-04-06T23:11:03.541Z,87.70
2019-04-06T23:13:32.267Z,88.10
2019-04-06T23:16:00.104Z,88.10
2019-04-06T23:18:28.545Z,87.70
2019-04-06T23:20:56.595Z,87.20
2019-04-06T23:23:24.677Z,87.00
2019-04-06T23:25:52.881Z,86.70
2019-04-06T23:28:21.690Z,87.10
2019-04-06T23:30:50.175Z,87.90
2019-04-06T23:33:18.638Z,88.10
2019-04-06T23:35:47.088Z,88.90
2019-04-06T23:38:15.006Z,88.60
2019-04-06T23:40:43.113Z,88.30
2019-04-06T23:43:10.922Z,88.00
2019-04-06T23:45:39.393Z,88.90
2019-04-06T23:48:07.239Z,88.90
2019-04-06T23:50:35.721Z,88.90
2019-04-06T23:53:04.213Z,90.00
2019-04-06T23:55:32.715Z,90.20
2019-04-06T23:58:00.732Z,90.20
